Time;durP1;ratioP1;P1;durP2;ratioP2;P2;SDS_P1;SDS_P2;PMS_P1;PMS_P2;Temp;Humidity;BMP_temperature;BMP_pressure;BME280_temperature;BME280_humidity;BME280_pressure;Samples;Min_cycle;Max_cycle;Signal;HPM_P1;HPM_P2
2022/01/11 10:29:26;;;;;;;11.15;7.60;;;14.00;75.10;;;;;;2299716;62;30276;-80
2022/01/11 10:31:53;;;;;;;10.52;7.25;;;14.00;74.70;;;;;;2291441;62;30307;-80
2022/01/11 10:34:33;;;;;;;10.55;7.18;;;14.00;75.20;;;;;;2291100;62;30175;-81
2022/01/11 10:37:01;;;;;;;11.13;7.93;;;14.10;76.00;;;;;;2291251;62;30368;-83
2022/01/11 10:39:32;;;;;;;10.65;6.93;;;14.10;76.90;;;;;;2283812;62;32040;-82
2022/01/11 10:41:57;;;;;;;9.95;7.25;;;14.10;77.20;;;;;;2283611;62;30298;-80
2022/01/11 10:44:52;;;;;;;10.43;6.47;;;14.10;77.40;;;;;;2291256;62;30423;-77
2022/01/11 10:47:26;;;;;;;11.55;6.45;;;14.20;77.10;;;;;;2291279;62;30296;-78
2022/01/11 10:49:54;;;;;;;8.25;5.82;;;14.20;77.70;;;;;;2283745;62;30361;-76
2022/01/11 10:52:22;;;;;;;8.68;6.78;;;14.30;78.00;;;;;;2276975;62;30178;-76
2022/01/11 10:54:48;;;;;;;7.78;6.22;;;14.30;78.10;;;;;;2291110;62;30254;-77
2022/01/11 10:57:25;;;;;;;8.32;6.57;;;14.30;78.00;;;;;;2283388;62;30283;-78
2022/01/11 11:00:06;;;;;;;6.22;5.63;;;14.40;77.50;;;;;;2286611;62;30345;-78
2022/01/11 11:02:32;;;;;;;7.18;6.13;;;14.40;77.00;;;;;;2284762;62;30001;-76
2022/01/11 11:04:58;;;;;;;7.45;6.07;;;14.50;77.90;;;;;;2282179;62;30040;-77
2022/01/11 11:07:26;;;;;;;6.78;6.00;;;14.50;77.80;;;;;;2282904;62;30404;-77
2022/01/11 11:09:52;;;;;;;7.38;5.93;;;14.50;77.90;;;;;;2282430;62;30285;-81
2022/01/11 11:12:21;;;;;;;8.73;6.00;;;14.60;77.90;;;;;;2282003;62;30226;-79
2022/01/11 11:14:49;;;;;;;7.55;5.72;;;14.60;77.90;;;;;;2282240;62;30249;-78
2022/01/11 11:17:34;;;;;;;6.63;5.55;;;14.70;77.90;;;;;;2282619;62;31149;-78
2022/01/11 11:20:08;;;;;;;6.53;5.82;;;14.70;76.30;;;;;;2282739;62;30201;-79
2022/01/11 11:22:34;;;;;;;6.20;5.13;;;14.80;77.10;;;;;;2282785;62;30076;-79
2022/01/11 11:25:00;;;;;;;6.68;5.53;;;14.80;76.90;;;;;;2282017;62;30060;-79
2022/01/11 11:27:28;;;;;;;7.55;5.43;;;14.90;76.70;;;;;;2282409;62;30230;-78
2022/01/11 11:29:53;;;;;;;6.30;5.38;;;14.80;76.60;;;;;;2282650;62;30503;-79
2022/01/11 11:32:21;;;;;;;7.35;5.53;;;14.90;76.50;;;;;;2275638;62;30243;-75
2022/01/11 11:34:49;;;;;;;8.18;5.38;;;14.80;76.40;;;;;;2282668;62;30202;-70
2022/01/11 11:37:33;;;;;;;7.20;6.05;;;14.80;76.30;;;;;;2282427;62;31035;-70
2022/01/11 11:39:59;;;;;;;6.07;5.47;;;14.90;75.30;;;;;;2278415;62;31246;-70
2022/01/11 11:42:26;;;;;;;5.25;4.75;;;14.80;75.90;;;;;;2269999;62;30141;-70
2022/01/11 11:44:52;;;;;;;6.50;4.97;;;14.80;76.00;;;;;;2269733;62;30172;-69
2022/01/11 11:47:31;;;;;;;5.38;4.88;;;14.80;76.00;;;;;;2269644;62;30149;-71
2022/01/11 11:49:58;;;;;;;6.30;4.93;;;14.70;75.50;;;;;;2263387;62;30273;-70
2022/01/11 11:52:34;;;;;;;6.60;5.18;;;14.70;76.00;;;;;;2263996;62;30383;-70
2022/01/11 11:55:01;;;;;;;5.38;4.85;;;14.60;75.90;;;;;;2270472;62;30259;-70
2022/01/11 11:57:31;;;;;;;7.05;5.30;;;14.60;75.80;;;;;;2277189;62;31145;-69
2022/01/11 12:00:30;;;;;;;5.70;4.68;;;14.60;75.90;;;;;;2269617;62;30107;-73
2022/01/11 12:02:57;;;;;;;5.90;4.80;;;14.60;75.70;;;;;;2267957;62;30076;-69
2022/01/11 12:05:37;;;;;;;5.63;4.95;;;14.60;75.60;;;;;;2269653;62;30180;-69
2022/01/11 12:08:34;;;;;;;6.03;4.95;;;14.60;75.40;;;;;;2277070;62;30319;-69
2022/01/11 12:11:05;;;;;;;6.07;5.10;;;14.60;75.10;;;;;;2276849;62;30278;-69
2022/01/11 12:13:51;;;;;;;5.85;5.25;;;14.50;75.70;;;;;;2277020;62;30126;-69
2022/01/11 12:16:34;;;;;;;6.57;4.65;;;14.50;75.30;;;;;;2277012;62;30227;-69
2022/01/11 12:19:04;;;;;;;5.45;4.68;;;14.50;75.40;;;;;;2277057;62;30964;-69
2022/01/11 12:21:49;;;;;;;6.40;5.10;;;14.40;75.70;;;;;;2269470;62;30089;-69
2022/01/11 12:24:16;;;;;;;5.97;5.00;;;14.40;75.60;;;;;;2276262;62;30397;-70
2022/01/11 12:26:42;;;;;;;6.55;4.50;;;14.40;75.60;;;;;;2262520;62;30219;-70
2022/01/11 12:29:12;;;;;;;5.45;4.95;;;14.40;75.60;;;;;;2262484;62;30262;-69
2022/01/11 12:31:41;;;;;;;5.07;4.55;;;14.40;75.60;;;;;;2276882;62;30399;-69
2022/01/11 12:34:10;;;;;;;6.43;4.50;;;14.40;75.60;;;;;;2262704;62;30326;-69
2022/01/11 12:36:58;;;;;;;4.85;4.32;;;14.40;75.50;;;;;;2269529;62;30262;-69
2022/01/11 12:39:25;;;;;;;4.40;4.00;;;14.40;75.00;;;;;;2269658;62;30295;-69
2022/01/11 12:41:52;;;;;;;4.43;4.00;;;14.40;75.40;;;;;;2269438;62;30417;-69
2022/01/11 12:44:33;;;;;;;4.88;4.00;;;14.40;75.30;;;;;;2262808;62;30338;-69
2022/01/11 12:47:05;;;;;;;4.85;3.90;;;14.40;75.20;;;;;;2276934;62;30371;-69
2022/01/11 12:49:33;;;;;;;5.35;4.60;;;14.40;75.10;;;;;;2276618;62;30112;-69
2022/01/11 12:52:09;;;;;;;4.50;4.10;;;14.50;75.10;;;;;;2268979;62;30626;-69
2022/01/11 12:54:48;;;;;;;4.55;4.10;;;14.50;75.20;;;;;;2270046;62;30280;-70
2022/01/11 12:57:15;;;;;;;4.95;4.20;;;14.50;75.00;;;;;;2269672;62;30222;-70
2022/01/11 12:59:56;;;;;;;4.43;4.03;;;14.40;75.10;;;;;;2276811;62;30886;-70
2022/01/11 13:02:26;;;;;;;4.13;3.73;;;14.40;74.90;;;;;;2262859;62;30516;-69
2022/01/11 13:05:02;;;;;;;4.45;4.05;;;14.40;75.30;;;;;;2269529;62;30170;-70
2022/01/11 13:07:30;;;;;;;4.43;4.03;;;14.40;75.10;;;;;;2276739;62;30345;-70
2022/01/11 13:10:06;;;;;;;4.32;3.92;;;14.40;75.20;;;;;;2269351;62;30318;-70
2022/01/11 13:12:35;;;;;;;4.00;3.70;;;14.40;74.90;;;;;;2269330;62;30765;-70
2022/01/11 13:15:09;;;;;;;4.82;3.88;;;14.40;75.00;;;;;;2269601;62;30171;-70
2022/01/11 13:17:48;;;;;;;4.30;3.90;;;14.40;75.70;;;;;;2276501;62;30314;-69
2022/01/11 13:20:15;;;;;;;4.30;3.90;;;14.40;74.70;;;;;;2269433;62;30329;-70
2022/01/11 13:23:03;;;;;;;3.95;3.63;;;14.40;74.90;;;;;;2276587;62;30340;-70
2022/01/11 13:25:49;;;;;;;4.10;3.70;;;14.50;74.60;;;;;;2263727;62;30024;-70
2022/01/11 13:28:38;;;;;;;4.03;3.63;;;14.40;74.60;;;;;;2263167;62;30414;-70
2022/01/11 13:31:08;;;;;;;3.78;3.38;;;14.40;74.50;;;;;;2260620;63;30968;-70
2022/01/11 13:33:35;;;;;;;4.20;3.80;;;14.40;74.90;;;;;;2259933;63;30524;-70
2022/01/11 13:36:14;;;;;;;4.15;3.78;;;14.30;75.00;;;;;;2260514;62;30106;-70
2022/01/11 13:38:48;;;;;;;4.20;3.80;;;14.30;74.80;;;;;;2259609;63;30020;-70
2022/01/11 13:41:15;;;;;;;4.32;3.92;;;14.40;74.90;;;;;;2260383;62;32314;-70
2022/01/11 13:43:46;;;;;;;3.92;3.60;;;14.40;74.90;;;;;;2260174;62;30279;-70
2022/01/11 13:46:23;;;;;;;3.90;3.57;;;14.40;74.90;;;;;;2260409;62;29969;-70
2022/01/11 13:48:51;;;;;;;3.88;3.58;;;14.40;74.70;;;;;;2259754;63;30138;-70
2022/01/11 13:51:23;;;;;;;4.00;3.70;;;14.40;74.80;;;;;;2260084;62;30345;-70
2022/01/11 13:53:50;;;;;;;4.28;3.80;;;14.40;74.60;;;;;;2253041;63;30172;-70
2022/01/11 13:56:16;;;;;;;3.75;3.38;;;14.40;74.80;;;;;;2252974;63;30299;-70
2022/01/11 13:58:51;;;;;;;3.88;3.58;;;14.40;74.80;;;;;;2252927;63;30499;-69
2022/01/11 14:01:17;;;;;;;4.10;3.70;;;14.30;74.80;;;;;;2253055;63;30288;-70
2022/01/11 14:03:43;;;;;;;3.55;3.30;;;14.30;74.90;;;;;;2259508;63;30356;-70
2022/01/11 14:06:15;;;;;;;3.65;3.25;;;14.30;75.00;;;;;;2259515;63;30391;-70
2022/01/11 14:08:48;;;;;;;3.58;3.28;;;14.30;75.00;;;;;;2259590;63;30079;-70
2022/01/11 14:11:27;;;;;;;3.80;3.50;;;14.30;75.00;;;;;;2260157;62;30561;-70
2022/01/11 14:14:00;;;;;;;3.88;3.58;;;14.30;74.80;;;;;;2259916;62;30438;-70
2022/01/11 14:16:26;;;;;;;3.85;3.55;;;14.30;74.90;;;;;;2259709;63;30142;-70
2022/01/11 14:19:03;;;;;;;3.25;3.03;;;14.30;74.80;;;;;;2259317;63;30017;-70
2022/01/11 14:21:29;;;;;;;3.35;3.05;;;14.30;74.70;;;;;;2259491;63;30158;-69
2022/01/11 14:23:55;;;;;;;3.50;3.20;;;14.30;74.70;;;;;;2259560;63;30433;-70
2022/01/11 14:26:32;;;;;;;3.67;3.38;;;14.30;74.80;;;;;;2259358;63;30181;-69
2022/01/11 14:28:58;;;;;;;3.80;3.35;;;14.40;74.70;;;;;;2259407;62;30149;-70
2022/01/11 14:31:26;;;;;;;3.42;3.13;;;14.30;74.80;;;;;;2260040;63;30263;-70
2022/01/11 14:33:55;;;;;;;3.70;3.30;;;14.30;74.80;;;;;;2259891;62;30487;-70
2022/01/11 14:36:22;;;;;;;3.67;3.38;;;14.30;74.90;;;;;;2259250;63;30505;-70
2022/01/11 14:38:50;;;;;;;3.60;3.30;;;14.30;74.90;;;;;;2259990;63;30312;-70
2022/01/11 14:41:24;;;;;;;3.40;3.10;;;14.30;74.90;;;;;;2259829;62;30211;-70
2022/01/11 14:44:18;;;;;;;3.58;3.28;;;14.30;74.90;;;;;;2259848;63;30073;-70
2022/01/11 14:46:55;;;;;;;3.20;2.92;;;14.30;74.80;;;;;;2260059;63;30375;-70
2022/01/11 14:49:26;;;;;;;3.58;3.28;;;14.30;74.80;;;;;;2259311;63;30285;-70
2022/01/11 14:52:15;;;;;;;3.40;3.10;;;14.30;74.70;;;;;;2259308;63;31048;-70
2022/01/11 14:54:42;;;;;;;3.17;2.88;;;14.30;74.50;;;;;;2259726;62;30503;-70
2022/01/11 14:57:14;;;;;;;3.28;3.03;;;14.30;74.60;;;;;;2259816;63;30008;-70
2022/01/11 14:59:39;;;;;;;;;;;14.30;74.70;;;;;;2260341;62;30295;-71
2022/01/11 15:02:27;;;;;;;3.42;2.88;;;14.30;74.40;;;;;;2259803;63;30924;-70
2022/01/11 15:04:55;;;;;;;3.40;3.10;;;14.20;74.70;;;;;;2255072;62;30353;-70
2022/01/11 15:07:23;;;;;;;3.60;3.30;;;14.20;74.80;;;;;;2259751;63;30179;-70
2022/01/11 15:09:49;;;;;;;3.50;3.20;;;14.20;74.80;;;;;;2259752;62;30272;-70
2022/01/11 15:12:20;;;;;;;3.65;3.35;;;14.20;74.80;;;;;;2258784;62;32382;-70
2022/01/11 15:14:48;;;;;;;3.22;3.00;;;14.30;74.90;;;;;;2260242;62;30764;-70
2022/01/11 15:17:14;;;;;;;3.40;3.10;;;14.30;74.80;;;;;;2259857;63;30371;-70
2022/01/11 15:19:40;;;;;;;3.10;2.90;;;14.30;74.80;;;;;;2261114;62;30523;-70
2022/01/11 15:22:06;;;;;;;3.10;2.80;;;14.30;74.80;;;;;;2260944;63;30234;-70
2022/01/11 15:24:32;;;;;;;3.20;2.90;;;14.30;74.80;;;;;;2261008;63;30206;-70
2022/01/11 15:26:58;;;;;;;3.40;3.10;;;14.30;74.80;;;;;;2261402;62;30252;-70
2022/01/11 15:29:33;;;;;;;3.90;3.40;;;14.30;74.80;;;;;;2269755;62;30490;-70
2022/01/11 15:32:00;;;;;;;3.88;3.53;;;14.30;74.70;;;;;;2277155;62;30989;-70
2022/01/11 15:34:26;;;;;;;3.55;3.25;;;14.20;74.80;;;;;;2269890;62;31771;-70
2022/01/11 15:36:54;;;;;;;3.50;3.20;;;14.20;74.90;;;;;;2277086;62;30275;-70
2022/01/11 15:39:22;;;;;;;3.47;3.20;;;14.20;74.90;;;;;;2276722;62;30465;-70
2022/01/11 15:41:50;;;;;;;3.42;3.13;;;14.20;74.90;;;;;;2277169;62;30980;-70
2022/01/11 15:44:16;;;;;;;3.30;3.00;;;14.20;74.90;;;;;;2276950;62;30815;-70
2022/01/11 15:46:42;;;;;;;3.45;3.15;;;14.20;74.90;;;;;;2277183;62;30205;-70
2022/01/11 15:49:08;;;;;;;3.17;2.90;;;14.20;74.90;;;;;;2277190;62;30357;-70
2022/01/11 15:51:34;;;;;;;3.15;2.85;;;14.20;74.80;;;;;;2276586;62;31249;-70
2022/01/11 15:54:11;;;;;;;4.05;3.22;;;14.20;74.80;;;;;;2269394;62;30569;-70
2022/01/11 15:56:40;;;;;;;6.97;3.20;;;14.20;74.70;;;;;;2263465;62;30567;-71
2022/01/11 15:59:07;;;;;;;3.13;2.83;;;14.20;74.80;;;;;;2276685;62;30117;-75
2022/01/11 16:01:33;;;;;;;5.88;3.28;;;14.20;74.80;;;;;;2269766;62;30178;-73
2022/01/11 16:03:59;;;;;;;5.80;3.17;;;14.40;74.70;;;;;;2269694;62;30803;-71
2022/01/11 16:06:24;;;;;;;3.95;3.20;;;14.50;74.50;;;;;;2276831;62;30277;-74
2022/01/11 16:08:50;;;;;;;4.18;2.80;;;14.60;74.40;;;;;;2276887;62;30263;-71
2022/01/11 16:11:16;;;;;;;3.28;2.70;;;14.70;74.30;;;;;;2276075;62;30386;-72
2022/01/11 16:13:42;;;;;;;3.10;2.80;;;14.80;74.90;;;;;;2269681;62;30126;-75
2022/01/11 16:16:08;;;;;;;3.65;2.78;;;14.90;74.10;;;;;;2277041;62;30234;-74
2022/01/11 16:18:34;;;;;;;21.42;3.90;;;14.90;74.10;;;;;;2283762;62;30862;-71
2022/01/11 16:21:03;;;;;;;3.60;2.95;;;15.00;74.00;;;;;;2276625;62;30792;-71
2022/01/11 16:23:32;;;;;;;6.00;2.75;;;15.10;73.70;;;;;;2277609;62;30971;-72
2022/01/11 16:25:58;;;;;;;3.63;2.90;;;15.10;73.60;;;;;;2270070;62;30305;-72
2022/01/11 16:28:24;;;;;;;3.63;2.78;;;15.20;73.60;;;;;;2276327;62;30213;-72
2022/01/11 16:30:50;;;;;;;3.13;2.83;;;15.30;73.60;;;;;;2274630;62;30837;-71
2022/01/11 16:33:18;;;;;;;3.33;3.03;;;15.30;73.50;;;;;;2282220;62;31680;-72
2022/01/11 16:35:45;;;;;;;2.70;2.50;;;15.40;73.50;;;;;;2285106;62;30044;-72
2022/01/11 16:38:13;;;;;;;3.10;2.80;;;15.50;73.40;;;;;;2285227;62;30231;-72
2022/01/11 16:43:11;;;;;;;3.95;2.70;;;15.60;73.20;;;;;;2284949;62;30155;-72
2022/01/11 16:45:39;;;;;;;2.75;2.55;;;15.60;73.10;;;;;;2277709;62;29933;-71
2022/01/11 16:48:05;;;;;;;2.90;2.70;;;15.70;73.10;;;;;;2281847;62;30047;-71
2022/01/11 16:50:33;;;;;;;5.95;3.10;;;15.70;73.00;;;;;;2276792;62;30956;-70
2022/01/11 16:52:58;;;;;;;6.57;3.10;;;15.70;72.90;;;;;;2276767;62;30577;-78
2022/01/11 16:55:24;;;;;;;2.83;2.63;;;15.70;72.90;;;;;;2276485;62;30880;-76
2022/01/11 16:57:51;;;;;;;2.90;2.70;;;15.70;72.60;;;;;;2262460;62;30152;-74
2022/01/11 17:00:17;;;;;;;3.70;2.88;;;15.80;72.60;;;;;;2276746;62;30945;-75
2022/01/11 17:02:43;;;;;;;3.53;2.40;;;15.90;72.50;;;;;;2276342;62;30644;-77
2022/01/11 17:05:08;;;;;;;2.65;2.45;;;16.00;72.30;;;;;;2277491;62;30240;-77
2022/01/11 17:07:34;;;;;;;2.78;2.45;;;16.10;72.20;;;;;;2274347;62;31410;-79
2022/01/11 17:10:05;;;;;;;2.63;2.42;;;16.20;72.10;;;;;;2271483;62;30121;-80
2022/01/11 17:12:33;;;;;;;2.50;2.30;;;16.20;72.00;;;;;;2276292;62;30324;-78
2022/01/11 17:14:59;;;;;;;2.78;2.50;;;16.30;72.00;;;;;;2283328;62;30567;-76
2022/01/11 17:17:25;;;;;;;2.63;2.42;;;16.40;71.80;;;;;;2283644;62;30944;-76
2022/01/11 17:19:51;;;;;;;2.70;2.50;;;16.30;71.80;;;;;;2283704;62;30889;-78
2022/01/11 17:22:19;;;;;;;2.60;2.40;;;16.40;71.70;;;;;;2283083;62;30671;-76
2022/01/11 17:24:45;;;;;;;2.35;2.25;;;16.40;71.60;;;;;;2275804;62;31044;-79
2022/01/11 17:27:11;;;;;;;2.63;2.42;;;16.50;71.40;;;;;;2270934;62;30381;-80
2022/01/11 17:29:37;;;;;;;4.78;2.67;;;16.50;72.00;;;;;;2275243;62;30112;-78
2022/01/11 17:32:04;;;;;;;4.20;2.47;;;16.50;71.20;;;;;;2275370;62;30663;-78
2022/01/11 17:34:32;;;;;;;3.15;2.50;;;16.50;71.20;;;;;;2267988;62;30832;-78
2022/01/11 17:36:59;;;;;;;2.65;2.45;;;16.50;71.10;;;;;;2274779;62;30407;-78
2022/01/11 17:39:26;;;;;;;2.90;2.55;;;16.50;71.10;;;;;;2261387;62;31114;-78
2022/01/11 17:41:52;;;;;;;2.67;2.25;;;16.50;71.10;;;;;;2275416;62;30570;-78
2022/01/11 17:44:18;;;;;;;3.20;2.90;;;16.50;71.10;;;;;;2275259;62;30062;-79
2022/01/11 17:46:44;;;;;;;2.72;2.50;;;16.60;71.10;;;;;;2275246;62;30284;-76
2022/01/11 17:49:10;;;;;;;2.70;2.50;;;16.50;71.00;;;;;;2261281;62;30272;-78
2022/01/11 17:51:42;;;;;;;3.88;2.92;;;16.60;71.00;;;;;;2268159;62;30077;-77
2022/01/11 17:54:09;;;;;;;3.28;2.97;;;16.50;70.90;;;;;;2275257;62;30290;-79
2022/01/11 17:56:38;;;;;;;2.97;2.75;;;16.60;71.00;;;;;;2275502;62;30323;-79
2022/01/11 17:59:04;;;;;;;3.80;3.17;;;16.60;71.00;;;;;;2267841;62;32169;-79
2022/01/11 18:01:30;;;;;;;4.38;3.80;;;16.50;71.00;;;;;;2267790;62;30368;-76
2022/01/11 18:03:56;;;;;;;4.55;3.45;;;16.60;71.30;;;;;;2267618;62;30694;-79
2022/01/11 18:06:22;;;;;;;7.32;3.70;;;16.50;71.20;;;;;;2278635;62;30045;-78
2022/01/11 18:08:50;;;;;;;6.13;3.80;;;16.60;71.20;;;;;;2276153;62;30920;-77
2022/01/11 18:11:17;;;;;;;4.95;3.42;;;16.50;71.00;;;;;;2283212;62;30831;-76
2022/01/11 18:13:43;;;;;;;11.70;3.88;;;16.50;71.20;;;;;;2283242;62;30196;-76
2022/01/11 18:16:10;;;;;;;4.18;3.78;;;16.50;71.30;;;;;;2275947;62;30768;-77
2022/01/11 18:18:36;;;;;;;5.53;3.67;;;16.50;71.30;;;;;;2275683;62;30745;-81
2022/01/11 18:21:01;;;;;;;3.60;3.22;;;16.50;71.20;;;;;;2282533;62;30291;-81
2022/01/11 18:23:28;;;;;;;5.28;3.25;;;16.50;71.10;;;;;;2283024;62;30115;-83
2022/01/11 18:25:55;;;;;;;3.83;3.53;;;16.60;71.20;;;;;;2274946;62;30158;-81
2022/01/11 18:28:21;;;;;;;3.55;3.25;;;16.60;71.10;;;;;;2283400;62;31124;-80
2022/01/11 18:30:47;;;;;;;4.45;3.40;;;16.70;71.00;;;;;;2276220;62;30966;-79
2022/01/11 18:33:15;;;;;;;5.95;3.60;;;16.80;70.80;;;;;;2282921;62;30457;-74
2022/01/11 18:35:41;;;;;;;3.72;3.33;;;16.90;70.70;;;;;;2279462;62;33348;-78
2022/01/11 18:38:08;;;;;;;5.38;3.15;;;17.00;70.60;;;;;;2279353;62;31269;-79
2022/01/11 18:40:36;;;;;;;4.25;3.17;;;17.10;70.50;;;;;;2282401;62;32290;-76
2022/01/11 18:43:02;;;;;;;5.18;2.95;;;17.10;70.40;;;;;;2282358;62;30431;-76
2022/01/11 18:45:28;;;;;;;4.03;2.85;;;17.20;70.30;;;;;;2282625;62;30319;-77
2022/01/11 18:47:54;;;;;;;3.15;2.78;;;17.30;70.20;;;;;;2275026;62;30274;-76
2022/01/11 18:50:20;;;;;;;2.70;2.50;;;17.30;70.20;;;;;;2283426;62;30535;-74
2022/01/11 18:52:46;;;;;;;5.55;2.83;;;17.40;70.10;;;;;;2277027;62;30163;-77
2022/01/11 18:55:12;;;;;;;3.03;2.83;;;17.40;70.10;;;;;;2276540;62;30533;-76
2022/01/11 18:57:38;;;;;;;2.60;2.40;;;17.50;69.90;;;;;;2276386;62;30408;-76
2022/01/11 19:00:06;;;;;;;2.97;2.63;;;17.50;69.80;;;;;;2276657;62;30218;-78
2022/01/11 19:02:34;;;;;;;2.85;2.55;;;17.60;69.70;;;;;;2277015;62;30129;-77
2022/01/11 19:05:03;;;;;;;2.60;2.40;;;17.60;69.60;;;;;;2284402;62;30524;-76
2022/01/11 19:07:29;;;;;;;3.42;2.60;;;17.60;69.50;;;;;;2270447;62;30314;-79
2022/01/11 19:09:55;;;;;;;3.22;2.90;;;17.60;69.50;;;;;;2283944;62;30523;-78
2022/01/11 19:12:21;;;;;;;2.80;2.60;;;17.60;69.50;;;;;;2276739;62;30184;-79
2022/01/11 19:14:48;;;;;;;8.82;2.83;;;17.60;69.40;;;;;;2276692;62;30183;-77
2022/01/11 19:17:16;;;;;;;2.92;2.63;;;17.60;69.40;;;;;;2270411;62;30294;-78
2022/01/11 19:19:44;;;;;;;2.80;2.60;;;17.60;69.30;;;;;;2277052;62;30813;-76
2022/01/11 19:22:09;;;;;;;2.72;2.53;;;17.60;69.30;;;;;;2284289;62;30429;-76
2022/01/11 19:24:35;;;;;;;2.75;2.55;;;17.60;69.20;;;;;;2276719;62;30123;-76
2022/01/11 19:27:08;;;;;;;2.97;2.70;;;17.60;69.20;;;;;;2269292;62;31152;-76
2022/01/11 19:29:38;;;;;;;3.42;2.67;;;17.60;69.10;;;;;;2283418;62;30595;-76
2022/01/11 19:32:06;;;;;;;3.00;2.80;;;17.60;69.00;;;;;;2284144;62;30257;-76
2022/01/11 19:34:35;;;;;;;2.80;2.60;;;17.60;69.00;;;;;;2272173;62;30192;-76
2022/01/11 19:37:01;;;;;;;4.18;2.75;;;17.60;68.90;;;;;;2275876;62;30937;-76
2022/01/11 19:39:27;;;;;;;3.00;2.80;;;17.60;69.00;;;;;;2268763;62;30231;-76
2022/01/11 19:41:55;;;;;;;3.63;3.08;;;17.60;69.00;;;;;;2276194;62;30165;-76
2022/01/11 19:44:23;;;;;;;2.90;2.70;;;17.60;69.00;;;;;;2282756;62;30381;-76
2022/01/11 19:46:49;;;;;;;3.13;2.90;;;17.50;69.00;;;;;;2283957;62;30738;-76
2022/01/11 19:49:18;;;;;;;4.95;4.43;;;17.50;69.10;;;;;;2275546;62;31038;-76
2022/01/11 19:51:47;;;;;;;3.97;3.58;;;17.50;69.10;;;;;;2275935;62;30702;-76
2022/01/11 19:54:14;;;;;;;4.10;3.67;;;17.50;69.10;;;;;;2276398;62;30721;-76
2022/01/11 19:56:41;;;;;;;3.63;3.33;;;17.50;69.20;;;;;;2283383;62;30823;-76
2022/01/11 19:59:07;;;;;;;3.67;3.35;;;17.40;69.20;;;;;;2283792;62;30315;-76
2022/01/11 20:01:34;;;;;;;3.55;3.05;;;17.40;69.30;;;;;;2283825;62;30302;-76
2022/01/11 20:04:00;;;;;;;4.00;3.55;;;17.40;69.20;;;;;;2276401;62;30239;-76
2022/01/11 20:06:26;;;;;;;3.60;3.30;;;17.40;69.20;;;;;;2284168;62;30143;-76
2022/01/11 20:08:52;;;;;;;3.47;3.17;;;17.40;69.20;;;;;;2276320;62;30667;-76
2022/01/11 20:11:21;;;;;;;5.18;3.03;;;17.40;69.20;;;;;;2284081;62;30141;-76
2022/01/11 20:13:48;;;;;;;3.33;3.00;;;17.40;69.20;;;;;;2284048;62;30152;-76
2022/01/11 20:16:13;;;;;;;3.85;3.20;;;17.40;69.30;;;;;;2276691;62;30435;-76
2022/01/11 20:18:40;;;;;;;5.07;3.50;;;17.40;69.30;;;;;;2283735;62;30359;-77
2022/01/11 20:21:06;;;;;;;4.80;3.30;;;17.40;69.20;;;;;;2269732;62;30973;-77
2022/01/11 20:29:01;;;;;;;4.82;3.33;;;17.40;69.20;;;;;;2284007;62;30614;-76
2022/01/11 20:31:29;;;;;;;4.05;3.17;;;17.40;69.20;;;;;;2283622;62;30278;-76
2022/01/11 20:33:56;;;;;;;3.60;3.30;;;17.30;69.20;;;;;;2282563;62;31415;-76
2022/01/11 20:36:23;;;;;;;4.07;2.92;;;17.40;69.20;;;;;;2283269;62;32372;-76
2022/01/11 20:38:48;;;;;;;3.20;2.90;;;17.30;69.10;;;;;;2283158;62;31413;-76
2022/01/11 20:41:17;;;;;;;3.40;3.10;;;17.30;69.10;;;;;;2276456;62;30169;-77
2022/01/11 20:43:45;;;;;;;3.45;3.15;;;17.30;69.10;;;;;;2276595;62;30194;-76
2022/01/11 20:46:10;;;;;;;4.57;3.10;;;17.30;69.80;;;;;;2283670;62;30251;-71
2022/01/11 20:48:37;;;;;;;3.58;2.92;;;17.30;69.30;;;;;;2269570;62;30240;-70
2022/01/11 20:51:13;;;;;;;4.13;2.97;;;17.30;69.30;;;;;;2283729;62;30288;-70
2022/01/11 20:53:39;;;;;;;3.70;3.40;;;17.40;69.30;;;;;;2283753;62;30276;-71
2022/01/11 20:56:13;;;;;;;4.22;3.17;;;17.40;69.30;;;;;;2276086;62;31054;-72
2022/01/11 20:58:43;;;;;;;3.60;2.80;;;17.40;69.20;;;;;;2277017;62;30631;-71
2022/01/11 21:01:10;;;;;;;4.25;2.90;;;17.40;69.10;;;;;;2276404;62;30110;-71
2022/01/11 21:03:39;;;;;;;2.83;2.63;;;17.40;69.10;;;;;;2276723;62;30058;-71
2022/01/11 21:06:07;;;;;;;3.00;2.78;;;17.40;69.00;;;;;;2276549;62;30943;-71
2022/01/11 21:08:35;;;;;;;3.47;2.70;;;17.40;69.00;;;;;;2283673;62;30747;-72
2022/01/11 21:11:02;;;;;;;4.75;3.13;;;17.40;69.00;;;;;;2283708;62;30132;-71
2022/01/11 21:13:31;;;;;;;3.60;3.00;;;17.50;69.00;;;;;;2269262;62;30612;-71
2022/01/11 21:21:08;;;;;;;3.10;2.88;;;17.50;69.00;;;;;;2275471;62;30457;-72
2022/01/11 21:23:38;;;;;;;3.22;2.92;;;17.50;69.00;;;;;;2275758;62;30700;-72
2022/01/11 21:26:04;;;;;;;4.75;3.30;;;17.50;69.10;;;;;;2268189;62;30115;-71
2022/01/11 21:28:33;;;;;;;4.00;3.40;;;17.50;69.00;;;;;;2254186;63;30750;-72
2022/01/11 21:30:59;;;;;;;3.30;3.10;;;17.50;68.90;;;;;;2258780;63;30278;-72
2022/01/11 21:33:26;;;;;;;5.65;3.20;;;17.50;68.80;;;;;;2264672;62;30293;-72
2022/01/11 21:35:53;;;;;;;3.58;3.28;;;17.60;68.70;;;;;;2265516;62;30904;-72
2022/01/11 21:38:19;;;;;;;3.80;3.40;;;17.60;68.70;;;;;;2267397;62;30255;-72
2022/01/11 21:40:45;;;;;;;3.28;2.97;;;17.60;68.70;;;;;;2265950;62;31272;-72
2022/01/11 21:43:12;;;;;;;3.60;3.20;;;17.60;68.70;;;;;;2266453;62;30242;-71
2022/01/11 21:45:42;;;;;;;3.47;3.17;;;17.60;68.70;;;;;;2267376;62;31526;-72
2022/01/11 21:48:08;;;;;;;3.55;3.25;;;17.50;68.70;;;;;;2265771;62;30676;-73
2022/01/11 21:50:34;;;;;;;3.55;3.22;;;17.50;68.70;;;;;;2267053;62;30385;-72
2022/01/11 21:53:00;;;;;;;3.10;2.88;;;17.50;68.70;;;;;;2266630;62;30449;-72
2022/01/11 21:55:31;;;;;;;3.28;2.97;;;17.60;68.70;;;;;;2266536;62;30840;-72
2022/01/11 21:58:02;;;;;;;3.38;3.10;;;17.50;68.70;;;;;;2266277;62;30106;-72
2022/01/11 22:00:35;;;;;;;3.20;2.90;;;17.50;68.70;;;;;;2260299;62;30089;-72
2022/01/11 22:03:06;;;;;;;3.35;3.10;;;17.50;68.70;;;;;;2269776;62;30561;-70
2022/01/11 22:05:35;;;;;;;3.95;3.00;;;17.50;68.70;;;;;;2258201;63;30961;-70
2022/01/11 22:08:01;;;;;;;3.25;2.95;;;17.50;68.70;;;;;;2258746;62;30388;-70
2022/01/11 22:10:35;;;;;;;3.72;3.40;;;17.50;68.70;;;;;;2258256;62;30194;-72
2022/01/11 22:13:10;;;;;;;3.90;3.50;;;17.40;68.70;;;;;;2259004;62;30357;-70
2022/01/11 22:18:03;;;;;;;3.63;3.33;;;17.50;68.80;;;;;;2258700;63;30124;-71
2022/01/11 22:20:29;;;;;;;3.70;3.40;;;17.40;68.80;;;;;;2265096;62;30641;-71
2022/01/11 22:22:56;;;;;;;3.80;3.42;;;17.40;68.80;;;;;;2258854;63;30696;-71
2022/01/11 22:25:23;;;;;;;3.50;3.20;;;17.40;68.80;;;;;;2264652;62;30819;-71
2022/01/11 22:27:49;;;;;;;3.53;3.22;;;17.40;68.80;;;;;;2262864;62;30148;-70
2022/01/11 22:30:15;;;;;;;3.67;3.10;;;17.40;68.90;;;;;;2258916;62;30219;-71
2022/01/11 22:32:40;;;;;;;3.50;3.20;;;17.40;68.90;;;;;;2258626;62;30682;-71
2022/01/11 22:35:10;;;;;;;3.28;2.97;;;17.40;68.90;;;;;;2258711;62;30800;-70
2022/01/11 22:37:36;;;;;;;3.92;3.03;;;17.40;68.90;;;;;;2264333;62;30488;-72
2022/01/11 22:40:06;;;;;;;3.17;2.92;;;17.40;68.90;;;;;;2266613;62;30230;-71
2022/01/11 22:42:32;;;;;;;3.28;2.97;;;17.30;68.90;;;;;;2258710;62;30158;-71
2022/01/11 22:44:58;;;;;;;6.15;3.60;;;17.40;69.00;;;;;;2258661;63;30583;-71
2022/01/11 22:47:25;;;;;;;5.82;3.20;;;17.30;68.90;;;;;;2258349;62;30563;-71
2022/01/11 22:49:51;;;;;;;3.80;2.72;;;17.30;68.90;;;;;;2257910;62;30277;-71
2022/01/11 22:52:17;;;;;;;4.43;3.05;;;17.30;68.90;;;;;;2258832;63;30535;-71
2022/01/11 22:54:45;;;;;;;3.20;2.90;;;17.30;68.90;;;;;;2257986;63;30110;-71
2022/01/11 22:57:12;;;;;;;3.78;3.10;;;17.30;69.00;;;;;;2257945;62;31031;-70
2022/01/11 22:59:39;;;;;;;3.38;3.08;;;17.30;69.00;;;;;;2258158;63;30656;-71
2022/01/11 23:02:05;;;;;;;3.40;3.10;;;17.30;69.00;;;;;;2261618;62;31124;-71
2022/01/11 23:04:31;;;;;;;4.00;3.35;;;17.30;69.00;;;;;;2257814;63;30192;-71
2022/01/11 23:06:58;;;;;;;3.33;3.03;;;17.30;68.90;;;;;;2258319;62;30793;-71
2022/01/11 23:09:24;;;;;;;3.30;3.10;;;17.30;68.90;;;;;;2258318;62;30177;-71
2022/01/11 23:11:52;;;;;;;3.78;3.47;;;17.30;68.80;;;;;;2257830;62;30461;-72
